Latest Weather Observations for Curtin

IDW60801

Issued at 9:32 pm WST Tuesday 4 August 2015 (issued every 30 minutes, with the page automatically refreshed every 10 minutes)

About weather observations | Map of weather stations | Latest weather observations for WA | Other Formats
Station Details ID: 003080 Name: CURTIN AERO Lat: -17.58 Lon: 123.83 Height: 77.5 m
Data from the previous 72 hours. | See also: Recent months at Curtin
Date/Time
WST
Temp
°C
App
Temp
°C
Dew
Point
Rel
Hum
%
Delta-T
°C
Wind Press
QNH
hPa
Press
MSL
hPa
Rain
since 9 am
mm
Dir
 
Spd
km/h
Gust
km/h
Spd
kts
Gust
kts
04/09:30pm 23.6 19.0 1.3 23 10.4 SE 15 20 8 11 1016.2 1015.8 0.0
04/09:00pm 23.1 18.9 1.4 24 10.1 SSE 13 17 7 9 1016.0 1015.6 0.0
04/08:30pm 24.4 19.9 1.9 23 10.7 SSE 15 20 8 11 1016.0 1015.6 0.0
04/08:00pm 24.7 20.1 1.6 22 10.9 SSE 15 20 8 11 1015.9 1015.5 0.0
04/07:30pm 25.0 20.4 1.8 22 11.1 SSE 15 17 8 9 1015.6 1015.2 0.0
04/07:00pm 25.2 21.2 2.6 23 11.0 SSE 13 15 7 8 1015.3 1014.9 0.0
04/06:30pm 25.7 22.1 3.0 23 11.1 SSE 11 15 6 8 1014.9 1014.5 0.0
04/06:00pm 26.5 22.8 2.4 21 11.7 SSE 11 15 6 8 1014.3 1014.0 0.0
04/05:30pm 28.2 24.1 2.4 19 12.7 SSE 13 15 7 8 1014.2 1013.9 0.0
04/05:00pm 30.1 25.6 2.4 17 13.8 SE 15 20 8 11 1014.0 1013.7 0.0
04/04:30pm 31.1 25.9 2.3 16 14.5 SE 19 28 10 15 1013.9 1013.6 0.0
04/04:00pm 31.7 26.4 1.9 15 14.9 SE 19 35 10 19 1013.7 1013.4 0.0
04/03:30pm 32.2 26.9 3.2 16 14.9 SE 20 30 11 16 1013.6 1013.3 0.0
04/03:00pm 32.4 28.1 3.4 16 14.9 ESE 15 24 8 13 1013.7 1013.4 0.0
04/02:30pm 32.4 27.2 2.5 15 15.2 SE 19 32 10 17 1013.9 1013.6 0.0
04/02:00pm 32.3 27.2 3.3 16 14.9 SE 19 33 10 18 1014.3 1014.0 0.0
04/01:30pm 32.3 27.1 3.3 16 14.9 ESE 20 30 11 16 1014.5 1014.2 0.0
04/01:00pm 31.5 26.4 4.3 18 14.1 ESE 20 32 11 17 1015.0 1014.6 0.0
04/12:30pm 31.5 27.4 4.3 18 14.2 ESE 15 22 8 12 1015.5 1015.1 0.0
04/12:00pm 30.9 26.5 4.6 19 13.7 ESE 17 32 9 17 1016.1 1015.7 0.0
04/11:30am 29.7 24.9 4.4 20 13.0 ESE 19 30 10 16 1016.8 1016.4 0.0
04/11:00am 28.9 24.1 4.4 21 12.6 E 19 30 10 16 1017.4 1017.0 0.0
04/10:30am 28.6 23.6 4.8 22 12.3 E 20 33 11 18 1017.7 1017.3 0.0
04/10:00am 27.3 22.4 5.0 24 11.4 ESE 20 32 11 17 1018.1 1017.7 0.0
04/09:30am 26.6 21.3 5.0 25 11.0 ESE 22 30 12 16 1018.3 1017.9 0.0
04/09:00am 25.4 20.1 5.1 27 10.3 ESE 22 30 12 16 1018.5 1018.1 0.0
04/08:30am 24.1 18.7 4.5 28 9.8 ESE 22 35 12 19 1018.3 1017.9 0.0
04/08:00am 23.1 18.3 4.6 30 9.2 ESE 19 30 10 16 1018.2 1017.8 0.0
04/07:30am 21.6 16.1 4.2 32 8.5 ESE 22 33 12 18 1018.0 1017.6 0.0
04/07:00am 20.4 15.4 3.6 33 8.0 SE 19 24 10 13 1017.8 1017.4 0.0
04/06:30am 20.0 14.9 3.3 33 7.9 ESE 19 28 10 15 1017.4 1017.0 0.0
04/06:00am 20.2 15.2 3.4 33 8.0 SE 19 28 10 15 1016.9 1016.5 0.0
04/05:30am 20.7 15.5 3.4 32 8.2 SE 20 32 11 17 1016.7 1016.3 0.0
04/05:00am 20.8 15.6 3.5 32 8.3 SE 20 30 11 16 1016.5 1016.1 0.0
04/04:30am 21.3 15.7 3.5 31 8.5 SE 22 32 12 17 1016.1 1015.7 0.0
04/04:00am 21.7 16.1 3.4 30 8.8 SE 22 33 12 18 1016.1 1015.7 0.0
04/03:30am 21.9 16.7 3.6 30 8.8 SE 20 30 11 16 1015.9 1015.5 0.0
04/03:00am 22.4 16.8 3.5 29 9.1 SE 22 35 12 19 1015.8 1015.4 0.0
04/02:30am 23.0 17.0 3.5 28 9.5 SE 24 35 13 19 1015.6 1015.2 0.0
04/02:00am 23.1 17.5 3.6 28 9.5 SE 22 33 12 18 1015.6 1015.2 0.0
04/01:30am 23.8 17.5 3.7 27 9.9 SE 26 39 14 21 1015.6 1015.2 0.0
04/01:00am 24.2 18.6 3.5 26 10.1 SE 22 33 12 18 1015.8 1015.4 0.0
04/12:30am 24.7 18.8 3.9 26 10.3 SE 24 33 13 18 1015.9 1015.5 0.0
04/12:00am 24.9 18.9 3.5 25 10.5 SE 24 37 13 20 1016.0 1015.6 0.0
 
Date/Time
WST
Temp
°C
App
Temp
°C
Dew
Point
Rel
Hum
%
Delta-T
°C
Wind Press
QNH
hPa
Press
MSL
hPa
Rain
since 9 am
mm
Dir
 
Spd
km/h
Gust
km/h
Spd
kts
Gust
kts
03/11:30pm 25.3 19.4 3.9 25 10.6 SE 24 37 13 20 1016.0 1015.6 0.0
03/11:00pm 25.6 20.0 3.5 24 10.9 SE 22 32 12 17 1016.0 1015.6 0.0
03/10:30pm 25.9 20.4 3.8 24 11.0 SE 22 32 12 17 1016.1 1015.7 0.0
03/10:00pm 25.9 20.4 3.8 24 11.0 SE 22 30 12 16 1016.0 1015.6 0.0
03/09:30pm 25.6 20.6 3.5 24 10.9 SSE 19 26 10 14 1015.8 1015.4 0.0
03/09:00pm 26.0 21.1 3.9 24 11.0 SSE 19 26 10 14 1015.6 1015.2 0.0
03/08:30pm 25.9 21.3 3.8 24 11.0 SSE 17 20 9 11 1015.5 1015.1 0.0
03/08:00pm 26.6 22.0 3.8 23 11.4 SSE 17 20 9 11 1015.4 1015.0 0.0
03/07:30pm 27.0 22.4 3.5 22 11.7 SSE 17 20 9 11 1015.2 1014.8 0.0
03/07:00pm 26.4 21.9 4.2 24 11.2 SSE 17 20 9 11 1015.0 1014.6 0.0
03/06:30pm 26.8 22.7 4.6 24 11.3 SSE 15 17 8 9 1014.5 1014.2 0.0
03/06:00pm 27.8 24.4 4.2 22 12.0 SSE 11 13 6 7 1014.3 1014.0 0.0
03/05:30pm 29.3 25.5 4.0 20 12.9 SSE 13 19 7 10 1014.2 1013.9 0.0
03/05:00pm 31.8 27.2 3.8 17 14.5 SSE 17 22 9 12 1013.9 1013.6 0.0
03/04:30pm 32.7 28.7 2.7 15 15.3 ESE 13 22 7 12 1013.9 1013.6 0.0
03/04:00pm 32.9 28.2 2.9 15 15.4 ESE 17 22 9 12 1013.8 1013.5 0.0
03/03:30pm 33.4 28.3 3.3 15 15.6 SE 19 26 10 14 1013.7 1013.4 0.0
03/03:00pm 33.1 28.0 3.0 15 15.5 SE 19 32 10 17 1013.7 1013.4 0.0
03/02:30pm 33.5 28.8 3.3 15 15.6 ESE 17 26 9 14 1013.9 1013.6 0.0
03/02:00pm 33.2 28.3 4.0 16 15.3 ESE 19 30 10 16 1014.2 1013.9 0.0
03/01:30pm 32.5 28.0 4.3 17 14.8 ESE 17 28 9 15 1014.3 1014.0 0.0
03/01:00pm 32.7 28.3 4.5 17 14.8 SE 17 26 9 14 1014.7 1014.3 0.0
03/12:30pm 31.9 26.9 4.6 18 14.3 SE 20 33 11 18 1015.2 1014.8 0.0
03/12:00pm 30.9 25.5 4.6 19 13.7 ESE 22 32 12 17 1015.6 1015.2 0.0
03/11:30am 30.5 24.7 4.3 19 13.6 SE 24 32 13 17 1016.2 1015.8 0.0
03/11:00am 30.3 24.2 4.9 20 13.2 SE 26 35 14 19 1016.6 1016.2 0.0
03/10:30am 28.9 23.1 4.4 21 12.6 SE 24 39 13 21 1016.9 1016.5 0.0
03/10:00am 27.7 21.2 4.7 23 11.8 SE 28 39 15 21 1017.3 1016.9 0.0
03/09:30am 26.9 20.4 4.6 24 11.3 SE 28 43 15 23 1017.5 1017.1 0.0
03/09:00am 25.8 19.2 4.3 25 10.8 SE 28 39 15 21 1017.5 1017.1 0.0
03/08:30am 25.0 19.3 4.7 27 10.2 SE 24 39 13 21 1017.1 1016.7 0.0
03/08:00am 23.4 17.6 4.4 29 9.4 SE 24 33 13 18 1016.8 1016.4 0.0
03/07:30am 21.9 16.7 3.6 30 8.8 SE 20 28 11 15 1016.5 1016.1 0.0
03/07:00am 21.1 15.8 2.9 30 8.6 SE 20 32 11 17 1016.1 1015.7 0.0
03/06:30am 20.4 15.0 2.3 30 8.4 SE 20 30 11 16 1015.7 1015.3 0.0
03/06:00am 19.2 13.9 1.7 31 8.0 SE 19 26 10 14 1015.5 1015.1 0.0
03/05:30am 19.5 14.5 1.5 30 8.2 SE 17 24 9 13 1015.1 1014.7 0.0
03/05:00am 21.0 15.6 1.3 27 9.0 SE 19 26 10 14 1014.4 1014.1 0.0
03/04:30am 21.5 16.0 1.7 27 9.2 SE 20 30 11 16 1014.3 1014.0 0.0
03/04:00am 21.9 16.9 1.5 26 9.5 SE 17 24 9 13 1014.0 1013.7 0.0
03/03:30am 20.4 16.2 1.8 29 8.6 SSE 13 17 7 9 1014.1 1013.8 0.0
03/03:00am 19.2 15.6 0.8 29 8.2 SSE 9 13 5 7 1014.3 1014.0 0.0
03/02:30am 19.6 15.2 0.6 28 8.5 SSE 13 15 7 8 1014.5 1014.2 0.0
03/02:00am 20.0 15.2 0.5 27 8.7 SSE 15 17 8 9 1014.5 1014.2 0.0
03/01:30am 21.2 16.0 0.4 25 9.4 SSE 17 19 9 10 1014.7 1014.3 0.0
03/01:00am 21.7 16.2 0.8 25 9.5 S 19 20 10 11 1015.0 1014.6 0.0
03/12:30am 21.6 16.8 0.2 24 9.7 SSE 15 17 8 9 1015.2 1014.8 0.0
03/12:00am 21.6 16.9 0.8 25 9.5 SSE 15 17 8 9 1015.5 1015.1 0.0
 
Date/Time
WST
Temp
°C
App
Temp
°C
Dew
Point
Rel
Hum
%
Delta-T
°C
Wind Press
QNH
hPa
Press
MSL
hPa
Rain
since 9 am
mm
Dir
 
Spd
km/h
Gust
km/h
Spd
kts
Gust
kts
02/11:30pm 21.1 16.4 0.9 26 9.2 SSE 15 17 8 9 1015.7 1015.3 0.0
02/11:00pm 21.2 16.5 1.0 26 9.2 S 15 17 8 9 1015.9 1015.5 0.0
02/10:30pm 21.2 16.9 1.0 26 9.2 S 13 15 7 8 1016.1 1015.7 0.0
02/10:00pm 21.3 17.4 1.0 26 9.3 S 11 15 6 8 1016.1 1015.7 0.0
02/09:30pm 22.4 18.0 0.3 23 10.1 SSE 13 19 7 10 1016.2 1015.8 0.0
02/09:00pm 24.2 19.8 0.5 21 11.0 SSE 13 15 7 8 1016.1 1015.7 0.0
02/08:30pm 24.5 20.6 1.4 22 10.9 SE 11 15 6 8 1016.1 1015.7 0.0
02/08:00pm 21.8 18.0 1.5 26 9.4 SSE 11 11 6 6 1015.9 1015.5 0.0
02/07:30pm 22.9 19.2 2.4 26 9.7 SSE 11 11 6 6 1015.7 1015.3 0.0
02/07:00pm 21.9 18.2 2.1 27 9.3 SSE 11 13 6 7 1015.4 1015.0 0.0
02/06:30pm 22.5 19.0 1.5 25 9.8 S 9 11 5 6 1015.1 1014.7 0.0
02/06:00pm 25.0 21.1 1.2 21 11.2 SSE 11 13 6 7 1014.8 1014.4 0.0
02/05:30pm 29.1 25.7 1.6 17 13.5 S 9 11 5 6 1014.5 1014.2 0.0
02/05:00pm 31.6 27.5 -0.1 13 15.3 SSE 11 17 6 9 1014.1 1013.8 0.0
02/04:30pm 32.8 27.9 -0.3 12 16.1 S 15 20 8 11 1013.8 1013.5 0.0
02/04:00pm 32.9 28.4 -0.2 12 16.1 SE 13 19 7 10 1013.8 1013.5 0.0
02/03:30pm 33.2 28.7 0.0 12 16.3 SSE 13 20 7 11 1013.7 1013.4 0.0
02/03:00pm 33.1 28.6 -0.1 12 16.2 SE 13 15 7 8 1013.7 1013.4 0.0
02/02:30pm 33.4 28.4 -1.0 11 16.6 SSE 15 20 8 11 1013.8 1013.5 0.0
02/02:00pm 33.1 28.3 -0.1 12 16.2 SE 15 20 8 11 1014.1 1013.8 0.0
02/01:30pm 32.9 27.8 0.9 13 15.9 SSE 17 24 9 13 1014.4 1014.1 0.0
02/01:00pm 32.8 28.1 0.8 13 15.8 SE 15 28 8 15 1014.7 1014.3 0.0
02/12:30pm 32.0 27.0 1.2 14 15.3 SE 17 28 9 15 1015.1 1014.7 0.0
02/12:00pm 32.1 27.4 3.1 16 14.8 SSE 17 26 9 14 1015.6 1015.2 0.0
02/11:30am 31.2 26.5 3.3 17 14.3 SSE 17 26 9 14 1016.0 1015.6 0.0
02/11:00am 30.3 26.3 4.9 20 13.2 SE 15 24 8 13 1016.6 1016.2 0.0
02/10:30am 29.3 25.5 6.0 23 12.3 SE 15 24 8 13 1016.9 1016.5 0.0
02/10:00am 28.1 23.7 5.0 23 11.9 S 17 22 9 12 1017.2 1016.8 0.0
02/09:30am 27.2 23.4 6.0 26 11.1 S 15 26 8 14 1017.4 1017.0 0.0
02/09:00am 25.7 21.0 5.3 27 10.4 S 19 22 10 12 1017.3 1016.9 0.0
02/08:30am 24.5 19.5 4.8 28 9.9 S 20 26 11 14 1017.0 1016.6 0.0
02/08:00am 22.8 17.9 5.3 32 8.8 S 20 26 11 14 1016.8 1016.4 0.0
02/07:30am 21.1 16.5 5.5 36 7.8 S 19 22 10 12 1016.5 1016.1 0.0
02/07:00am 18.1 15.1 7.8 51 5.2 S 13 17 7 9 1016.3 1015.9 0.0
02/06:30am 16.1 13.3 8.6 61 3.8 S 13 15 7 8 1016.1 1015.7 0.0
02/06:00am 14.9 12.2 8.8 67 3.1 S 13 15 7 8 1015.8 1015.4 0.0
02/05:30am 15.8 13.5 10.6 71 2.8 S 13 15 7 8 1015.6 1015.2 0.0
02/05:00am 15.6 13.5 11.2 75 2.4 S 13 15 7 8 1015.3 1014.9 0.0
02/04:30am 15.3 13.6 11.1 76 2.2 S 11 13 6 7 1015.1 1014.7 0.0
02/04:00am 15.8 13.8 11.4 75 2.4 S 13 13 7 7 1015.0 1014.6 0.0
02/03:30am 16.2 14.2 11.4 73 2.6 S 13 15 7 8 1015.0 1014.6 0.0
02/03:00am 16.5 13.9 10.8 69 3.1 S 15 17 8 9 1015.1 1014.7 0.0
02/02:30am 16.1 13.9 10.8 71 2.8 SSW 13 15 7 8 1015.2 1014.8 0.0
02/02:00am 15.9 13.8 9.8 67 3.2 SSW 11 13 6 7 1015.4 1015.0 0.0
02/01:30am 16.8 14.4 10.0 64 3.6 SSW 13 13 7 7 1015.6 1015.2 0.0
02/01:00am 17.0 14.4 9.4 61 4.0 SSW 13 15 7 8 1015.7 1015.3 0.0
02/12:30am 17.2 14.7 8.4 56 4.5 SSW 11 13 6 7 1015.7 1015.3 0.0
02/12:00am 18.2 15.4 8.5 53 5.0 S 13 13 7 7 1015.7 1015.3 0.0
 
Date/Time
WST
Temp
°C
App
Temp
°C
Dew
Point
Rel
Hum
%
Delta-T
°C
Wind Press
QNH
hPa
Press
MSL
hPa
Rain
since 9 am
mm
Dir
 
Spd
km/h
Gust
km/h
Spd
kts
Gust
kts
01/11:30pm 19.3 16.4 8.3 49 5.7 SW 13 15 7 8 1015.6 1015.2 0.0
01/11:00pm 20.6 17.8 8.6 46 6.3 SW 13 15 7 8 1015.7 1015.3 0.0
01/10:30pm 21.0 17.7 8.0 43 6.8 WSW 15 17 8 9 1016.0 1015.6 0.0
01/10:00pm 21.5 18.3 8.4 43 6.9 W 15 19 8 10 1015.9 1015.5 0.0

Other Formats:

Comma delimited format used in spreadsheet applications
http://www.bom.gov.au/fwo/IDW60801/IDW60801.94204.axf

JavaScript Object Notation format (JSON) in row-major order
http://www.bom.gov.au/fwo/IDW60801/IDW60801.94204.json